Time;durP1;ratioP1;P1;durP2;ratioP2;P2;SDS_P1;SDS_P2;PMS_P1;PMS_P2;Temp;Humidity;BMP_temperature;BMP_pressure;BME280_temperature;BME280_humidity;BME280_pressure;Samples;Min_cycle;Max_cycle;Signal;HPM_P1;HPM_P2
2022/09/03 00:01:57;;;;;;;1.80;1.50;;;;;;;17.41;59.60;97696.78;5074261;28;20210;-69
2022/09/03 00:04:45;;;;;;;2.83;1.37;;;;;;;17.45;58.86;97692.44;5056824;28;20196;-69
2022/09/03 00:07:20;;;;;;;2.43;1.30;;;;;;;17.49;58.17;97694.34;5074119;28;20279;-69
2022/09/03 00:09:51;;;;;;;2.20;1.30;;;;;;;17.49;60.18;97699.72;5073777;28;20411;-69
2022/09/03 00:12:23;;;;;;;2.20;1.70;;;;;;;17.51;58.54;97686.78;5073535;28;20189;-69
2022/09/03 00:15:00;;;;;;;2.83;1.30;;;;;;;17.49;60.53;97682.75;5073875;28;20719;-69
2022/09/03 00:17:42;;;;;;;3.33;1.63;;;;;;;17.44;59.51;97686.28;5056073;28;20261;-69
2022/09/03 00:20:13;;;;;;;1.60;0.97;;;;;;;17.44;59.21;97685.47;5073402;28;20672;-69
2022/09/03 00:22:43;;;;;;;1.83;1.40;;;;;;;17.47;60.31;97683.03;5039855;28;20193;-69
2022/09/03 00:25:14;;;;;;;1.33;1.23;;;;;;;17.47;60.77;97685.72;5073840;28;20211;-69
2022/09/03 00:27:43;;;;;;;3.03;1.90;;;;;;;17.45;62.59;97690.56;5056419;28;20197;-69
2022/09/03 00:30:14;;;;;;;2.30;1.70;;;;;;;17.46;60.65;97688.69;5073681;28;20315;-69
2022/09/03 00:32:46;;;;;;;1.83;1.73;;;;;;;17.45;61.08;97682.50;5073778;28;20203;-69
2022/09/03 00:35:31;;;;;;;1.93;1.57;;;;;;;17.47;61.84;97685.72;5074324;28;20189;-69
2022/09/03 00:37:59;;;;;;;2.43;1.60;;;;;;;17.51;61.70;97683.31;5073244;28;20208;-69
2022/09/03 00:40:35;;;;;;;2.50;1.87;;;;;;;17.54;61.62;97691.63;5073582;28;20307;-69
2022/09/03 00:43:25;;;;;;;2.93;1.70;;;;;;;17.57;59.53;97688.41;5073361;28;20559;-69
2022/09/03 00:46:21;;;;;;;2.30;1.60;;;;;;;17.62;60.23;97688.41;5073690;28;20216;-69
2022/09/03 00:49:02;;;;;;;2.73;1.67;;;;;;;17.62;60.02;97683.03;5073643;28;20268;-69
2022/09/03 00:51:41;;;;;;;2.93;1.90;;;;;;;17.66;60.40;97684.09;5073529;28;20189;-69
2022/09/03 00:54:36;;;;;;;1.80;1.70;;;;;;;17.75;58.69;97671.69;5073714;28;20195;-69
2022/09/03 00:57:29;;;;;;;2.20;1.60;;;;;;;17.69;58.52;97682.75;5073161;28;20227;-69
2022/09/03 01:00:13;;;;;;;1.40;1.30;;;;;;;17.68;59.06;97678.41;5055626;28;20224;-69
2022/09/03 01:03:10;;;;;;;1.60;1.40;;;;;;;17.67;59.79;97682.19;5073451;28;20237;-69
2022/09/03 01:05:43;;;;;;;2.07;1.47;;;;;;;17.67;58.85;97687.56;5073593;28;20201;-69
2022/09/03 01:08:25;;;;;;;3.73;1.40;;;;;;;17.70;58.83;97681.66;5073386;28;20207;-69
2022/09/03 01:11:10;;;;;;;3.97;1.67;;;;;;;17.67;58.85;97683.00;5073002;28;20224;-69
2022/09/03 01:13:43;;;;;;;2.17;1.40;;;;;;;17.69;58.79;97680.06;5056785;28;20558;-69
2022/09/03 01:16:48;;;;;;;3.00;1.40;;;;;;;17.65;58.68;97681.66;5073336;28;20295;-69
2022/09/03 01:19:35;;;;;;;3.80;1.40;;;;;;;17.68;58.98;97681.91;5050771;28;20695;-69
2022/09/03 01:22:23;;;;;;;1.80;1.10;;;;;;;17.71;59.27;97685.94;5072912;28;20193;-69
2022/09/03 01:25:11;;;;;;;3.17;1.30;;;;;;;17.74;58.95;97688.09;5072915;28;20532;-69
2022/09/03 01:27:46;;;;;;;2.57;1.40;;;;;;;17.75;58.78;97674.38;5073205;28;20558;-69
2022/09/03 01:30:17;;;;;;;4.47;1.50;;;;;;;17.75;58.92;97679.75;5073156;28;20224;-69
2022/09/03 01:32:58;;;;;;;2.07;1.30;;;;;;;17.73;58.89;97681.91;5073193;28;20280;-69
2022/09/03 01:35:42;;;;;;;1.60;1.20;;;;;;;17.75;59.95;97684.31;5073125;28;20279;-69
2022/09/03 01:38:16;;;;;;;2.10;1.27;;;;;;;17.71;59.76;97676.00;5072968;28;20595;-69
2022/09/03 01:40:50;;;;;;;2.03;1.43;;;;;;;17.68;60.39;97679.22;5055211;28;20311;-69
2022/09/03 01:43:43;;;;;;;1.63;1.47;;;;;;;17.71;60.52;97684.06;5055014;28;20707;-69
2022/09/03 01:46:21;;;;;;;2.97;1.53;;;;;;;17.70;60.32;97687.03;5040964;28;20188;-69
2022/09/03 01:48:53;;;;;;;1.57;1.30;;;;;;;17.68;61.24;97687.28;5072993;28;20191;-69
2022/09/03 01:51:23;;;;;;;2.47;1.33;;;;;;;17.63;60.35;97692.69;5072903;28;20188;-69
2022/09/03 01:54:14;;;;;;;1.43;1.33;;;;;;;17.57;61.32;97692.97;5072623;28;20686;-69
2022/09/03 01:56:59;;;;;;;4.90;1.53;;;;;;;17.54;60.09;97691.63;5073493;28;20189;-69
2022/09/03 01:59:48;;;;;;;3.20;1.40;;;;;;;17.58;63.05;97689.19;5072792;28;20230;-69
2022/09/03 02:02:24;;;;;;;2.00;1.33;;;;;;;17.64;62.25;97696.19;5072885;28;20243;-69
2022/09/03 02:05:06;;;;;;;1.60;1.33;;;;;;;17.63;63.78;97683.81;5072939;28;20211;-69
2022/09/03 02:07:40;;;;;;;2.90;1.20;;;;;;;17.64;60.73;97683.53;5077068;28;20189;-69
2022/09/03 02:10:14;;;;;;;2.83;1.50;;;;;;;17.64;62.77;97678.16;5076001;28;20238;-69
2022/09/03 02:12:44;;;;;;;1.60;1.50;;;;;;;17.62;62.62;97679.50;5076384;28;20188;-69
2022/09/03 02:15:18;;;;;;;1.50;1.40;;;;;;;17.72;61.03;97679.47;5076244;28;20204;-69
2022/09/03 02:17:48;;;;;;;1.77;1.53;;;;;;;17.74;61.15;97690.78;5076253;28;20209;-69
2022/09/03 02:20:20;;;;;;;3.30;1.60;;;;;;;17.69;60.85;97699.66;5076086;28;20232;-69
2022/09/03 02:22:48;;;;;;;3.03;1.40;;;;;;;17.68;60.47;97698.06;5076205;28;20244;-69
2022/09/03 02:25:16;;;;;;;2.87;1.40;;;;;;;17.66;62.75;97704.78;5076361;28;20563;-69
2022/09/03 02:27:44;;;;;;;2.17;1.70;;;;;;;17.65;61.63;97703.19;5076133;28;20224;-69
2022/09/03 02:30:11;;;;;;;2.30;1.53;;;;;;;17.62;62.16;97707.22;5075591;28;20711;-69
2022/09/03 02:32:38;;;;;;;1.87;1.33;;;;;;;17.60;62.76;97703.97;5075754;28;20215;-69
2022/09/03 02:35:04;;;;;;;4.40;1.40;;;;;;;17.59;61.09;97699.69;5075599;28;20314;-69
2022/09/03 02:37:31;;;;;;;1.90;1.30;;;;;;;17.55;62.81;97698.59;5075507;28;20586;-69
2022/09/03 02:39:57;;;;;;;2.13;1.60;;;;;;;17.55;61.60;97704.00;5075799;28;20319;-69
2022/09/03 02:42:24;;;;;;;3.13;1.40;;;;;;;17.49;62.35;97694.34;5076057;28;20211;-69
2022/09/03 02:44:56;;;;;;;1.47;1.30;;;;;;;17.40;63.09;97701.34;5075803;28;20292;-69
2022/09/03 02:47:29;;;;;;;2.80;1.53;;;;;;;17.28;62.71;97692.69;5058052;28;20189;-69
2022/09/03 02:49:55;;;;;;;2.13;1.60;;;;;;;17.21;63.74;97700.25;5075690;28;20228;-69
2022/09/03 02:52:22;;;;;;;3.20;1.30;;;;;;;17.26;62.81;97683.31;5075594;28;20292;-69
2022/09/03 02:54:48;;;;;;;3.43;1.60;;;;;;;17.29;63.64;97685.47;5075557;28;20291;-69
2022/09/03 02:57:16;;;;;;;2.10;1.20;;;;;;;17.24;63.32;97683.56;5075394;28;20204;-69
2022/09/03 02:59:44;;;;;;;2.00;1.60;;;;;;;17.23;63.77;97684.66;5075081;28;20707;-69
2022/09/03 03:02:12;;;;;;;3.40;1.47;;;;;;;17.20;63.70;97689.75;5075424;28;20254;-69
2022/09/03 03:04:39;;;;;;;2.27;1.50;;;;;;;17.16;63.82;97694.06;5075396;28;20299;-69
2022/09/03 03:07:07;;;;;;;2.00;1.70;;;;;;;17.18;63.53;97699.94;5075264;28;20303;-69
2022/09/03 03:09:33;;;;;;;4.80;1.53;;;;;;;17.11;64.59;97699.44;5075166;28;20221;-69
2022/09/03 03:11:59;;;;;;;3.97;1.50;;;;;;;17.06;64.60;97696.75;5075454;28;20208;-69
2022/09/03 03:14:26;;;;;;;2.90;1.40;;;;;;;17.04;66.15;97702.38;5075167;28;20208;-69
2022/09/03 03:16:52;;;;;;;2.73;1.80;;;;;;;17.00;66.00;97695.13;5073989;28;20236;-69
2022/09/03 03:19:19;;;;;;;2.90;1.50;;;;;;;17.01;65.34;97702.91;5074800;28;20243;-69
2022/09/03 03:21:45;;;;;;;1.83;1.57;;;;;;;16.95;66.16;97697.81;5074980;28;20599;-69
2022/09/03 03:24:12;;;;;;;2.40;1.37;;;;;;;17.02;65.63;97698.34;5074950;28;20300;-69
2022/09/03 03:26:38;;;;;;;2.60;1.60;;;;;;;17.02;66.53;97704.56;5074784;28;20231;-69
2022/09/03 03:29:04;;;;;;;2.50;1.60;;;;;;;16.97;66.25;97707.19;5074813;28;20282;-69
2022/09/03 03:31:32;;;;;;;3.07;1.50;;;;;;;17.04;64.86;97709.63;5074486;28;20208;-69
2022/09/03 03:34:00;;;;;;;2.03;1.60;;;;;;;17.04;66.39;97707.75;5074322;28;20689;-69
2022/09/03 03:36:31;;;;;;;2.43;1.40;;;;;;;17.02;64.41;97704.56;5074678;28;20204;-69
2022/09/03 03:38:59;;;;;;;1.80;1.57;;;;;;;17.00;65.11;97708.53;5074463;28;20236;-69
2022/09/03 03:41:37;;;;;;;3.57;1.60;;;;;;;16.96;65.71;97702.13;5074746;28;20292;-69
2022/09/03 03:44:06;;;;;;;2.50;1.60;;;;;;;16.94;66.12;97701.56;5074182;28;20200;-69
2022/09/03 03:46:38;;;;;;;1.57;1.33;;;;;;;16.93;65.97;97706.16;5074158;28;20578;-69
2022/09/03 03:49:06;;;;;;;1.97;1.60;;;;;;;16.90;66.09;97703.19;5074259;28;20703;-69
2022/09/03 03:51:33;;;;;;;2.53;1.60;;;;;;;16.89;66.83;97707.75;5074305;28;20207;-69
2022/09/03 03:53:59;;;;;;;2.10;1.40;;;;;;;16.95;66.13;97708.53;5073942;28;20295;-69
2022/09/03 03:56:27;;;;;;;1.63;1.50;;;;;;;16.93;66.54;97711.53;5074319;28;20208;-69
2022/09/03 03:58:54;;;;;;;3.27;1.70;;;;;;;16.95;66.27;97703.19;5073783;28;20221;-69
2022/09/03 04:01:23;;;;;;;2.40;1.50;;;;;;;16.95;66.55;97719.28;5074069;28;20291;-69
2022/09/03 04:03:50;;;;;;;2.73;1.60;;;;;;;16.96;66.42;97721.72;5074134;28;20296;-69
2022/09/03 04:06:19;;;;;;;2.33;1.73;;;;;;;16.94;66.78;97715.81;5074320;28;20291;-69
2022/09/03 04:08:46;;;;;;;2.20;1.67;;;;;;;16.95;67.44;97713.91;5073613;28;20678;-69
2022/09/03 04:11:19;;;;;;;3.37;1.63;;;;;;;16.92;67.01;97709.09;5073975;28;20205;-69
2022/09/03 04:13:46;;;;;;;2.00;1.47;;;;;;;16.92;67.94;97699.16;5073603;28;20204;-70
2022/09/03 04:16:24;;;;;;;2.13;1.90;;;;;;;16.89;68.75;97705.06;5074075;28;20211;-69
2022/09/03 04:18:53;;;;;;;1.73;1.60;;;;;;;16.90;68.86;97703.19;5073331;28;20693;-69
2022/09/03 04:21:22;;;;;;;5.50;2.07;;;;;;;16.89;69.15;97710.44;5073701;28;20223;-69
2022/09/03 04:23:52;;;;;;;2.43;1.60;;;;;;;16.93;67.71;97711.53;5073792;28;20204;-69
2022/09/03 04:26:30;;;;;;;2.20;1.60;;;;;;;16.96;67.34;97708.28;5073799;28;20212;-69
2022/09/03 04:28:58;;;;;;;2.37;1.50;;;;;;;17.01;66.37;97702.91;5074014;28;20181;-69
2022/09/03 04:31:24;;;;;;;2.87;1.50;;;;;;;16.99;67.41;97697.03;5073721;28;20201;-69
2022/09/03 04:33:51;;;;;;;1.77;1.33;;;;;;;16.98;67.25;97706.16;5073693;28;20207;-69
2022/09/03 04:36:20;;;;;;;2.80;1.50;;;;;;;17.01;65.60;97708.28;5074310;28;20211;-69
2022/09/03 04:38:49;;;;;;;1.60;1.50;;;;;;;17.03;65.59;97711.53;5073227;28;20703;-69
2022/09/03 04:41:21;;;;;;;2.50;1.47;;;;;;;17.00;66.41;97714.75;5073228;28;20750;-69
2022/09/03 04:43:48;;;;;;;1.90;1.27;;;;;;;16.94;67.20;97713.13;5073503;28;20574;-69
2022/09/03 04:46:16;;;;;;;1.43;1.33;;;;;;;16.95;65.69;97709.38;5073490;28;20208;-69
2022/09/03 04:48:42;;;;;;;1.67;1.50;;;;;;;16.99;65.75;97715.00;5073151;28;20204;-69
2022/09/03 04:51:14;;;;;;;2.83;1.27;;;;;;;16.98;65.88;97714.22;5073097;28;20699;-69
2022/09/03 04:53:44;;;;;;;1.67;1.57;;;;;;;17.01;65.44;97708.28;5073105;28;20295;-69
2022/09/03 04:56:18;;;;;;;1.87;1.10;;;;;;;16.97;66.63;97709.09;5073419;28;20634;-69
2022/09/03 04:58:46;;;;;;;1.60;1.50;;;;;;;16.98;65.85;97708.84;5056116;28;20208;-69
2022/09/03 05:01:16;;;;;;;3.27;1.53;;;;;;;16.99;65.73;97715.81;5073190;28;20221;-69
2022/09/03 05:03:43;;;;;;;3.33;1.73;;;;;;;17.05;65.57;97713.94;5073071;28;20636;-71
2022/09/03 05:06:10;;;;;;;1.30;1.20;;;;;;;17.06;65.93;97713.66;5073210;28;20204;-69
2022/09/03 05:08:37;;;;;;;2.73;1.47;;;;;;;17.13;65.64;97719.56;5073407;28;20286;-69
2022/09/03 05:11:05;;;;;;;1.30;1.30;;;;;;;17.20;65.48;97720.09;5073093;28;20232;-69
2022/09/03 05:13:32;;;;;;;1.50;1.40;;;;;;;17.18;65.80;97716.88;5072968;28;20659;-69
2022/09/03 05:16:00;;;;;;;3.33;1.57;;;;;;;17.20;65.94;97711.25;5073199;28;20204;-71
2022/09/03 05:18:27;;;;;;;1.30;1.20;;;;;;;17.19;66.23;97707.75;5073059;28;20224;-71
2022/09/03 05:21:11;;;;;;;3.63;1.40;;;;;;;17.19;66.07;97709.66;5072847;28;20238;-71
2022/09/03 05:23:43;;;;;;;2.97;1.50;;;;;;;17.19;67.00;97721.19;5073161;28;20203;-71
2022/09/03 05:26:12;;;;;;;2.00;1.10;;;;;;;17.18;67.52;97714.19;5073160;28;20299;-71
2022/09/03 05:28:41;;;;;;;1.70;1.50;;;;;;;17.17;67.39;97717.16;5073161;28;20209;-71
2022/09/03 05:31:16;;;;;;;1.73;1.60;;;;;;;17.18;66.86;97722.25;5073072;28;20375;-71
2022/09/03 05:33:51;;;;;;;1.40;1.30;;;;;;;17.21;66.92;97711.00;5073178;28;20192;-71
2022/09/03 05:36:22;;;;;;;2.57;1.70;;;;;;;17.24;66.57;97718.50;5073079;28;20295;-71
2022/09/03 05:38:49;;;;;;;1.60;1.50;;;;;;;17.23;66.64;97722.25;5072438;28;20209;-71
2022/09/03 05:41:17;;;;;;;2.07;1.30;;;;;;;17.22;66.17;97715.28;5075217;28;20208;-71
2022/09/03 05:43:44;;;;;;;1.80;1.50;;;;;;;17.27;66.96;97717.16;5076505;28;20295;-71
2022/09/03 05:46:15;;;;;;;4.00;1.63;;;;;;;17.29;66.69;97720.38;5076726;28;20304;-71
2022/09/03 05:48:42;;;;;;;2.00;1.67;;;;;;;17.38;66.62;97718.78;5076800;28;20189;-71
2022/09/03 05:51:15;;;;;;;1.40;1.30;;;;;;;17.37;66.60;97717.16;5076668;28;20225;-71
2022/09/03 05:53:42;;;;;;;5.83;1.70;;;;;;;17.40;66.33;97717.44;5076782;28;20185;-71
2022/09/03 05:56:11;;;;;;;3.53;1.73;;;;;;;17.40;66.37;97722.00;5076634;28;20214;-71
2022/09/03 05:58:44;;;;;;;3.63;1.57;;;;;;;17.35;67.58;97725.50;5076676;28;20235;-71
2022/09/03 06:01:18;;;;;;;1.60;1.50;;;;;;;17.40;66.47;97738.13;5076501;28;20311;-71
2022/09/03 06:03:47;;;;;;;3.00;2.10;;;;;;;17.41;66.77;97732.50;5076507;28;20189;-71
2022/09/03 06:06:14;;;;;;;2.57;1.80;;;;;;;17.43;66.80;97737.59;5076657;28;20208;-71
2022/09/03 06:08:43;;;;;;;2.43;1.73;;;;;;;17.43;67.01;97743.81;5076305;28;20204;-71
2022/09/03 06:11:11;;;;;;;2.47;1.60;;;;;;;17.49;67.32;97737.34;5076234;28;20315;-71
2022/09/03 06:13:37;;;;;;;2.17;1.70;;;;;;;17.48;66.66;97729.53;5076375;28;20208;-71
2022/09/03 06:16:07;;;;;;;2.80;1.77;;;;;;;17.48;68.02;97733.03;5076324;28;20204;-71
2022/09/03 06:18:34;;;;;;;3.37;1.40;;;;;;;17.50;67.54;97732.78;5075802;28;20256;-71
2022/09/03 06:21:04;;;;;;;2.20;1.43;;;;;;;17.49;67.51;97737.34;5075794;28;20670;-71
2022/09/03 06:23:32;;;;;;;2.20;1.57;;;;;;;17.49;67.07;97740.03;5075911;28;20196;-71
2022/09/03 06:26:02;;;;;;;2.27;1.60;;;;;;;17.47;66.83;97736.78;5076102;28;20299;-71
2022/09/03 06:28:30;;;;;;;1.83;1.50;;;;;;;17.48;67.12;97741.09;5075800;28;20223;-69
2022/09/03 06:31:01;;;;;;;1.70;1.60;;;;;;;17.55;66.97;97743.53;5075896;28;20231;-69
2022/09/03 06:33:29;;;;;;;3.70;1.40;;;;;;;17.66;66.60;97735.16;5075814;28;20204;-69
2022/09/03 06:35:58;;;;;;;1.50;1.40;;;;;;;17.67;67.18;97741.34;5075793;28;20747;-69
2022/09/03 06:38:28;;;;;;;1.93;1.70;;;;;;;17.76;67.05;97743.22;5075397;28;20208;-69
2022/09/03 06:41:01;;;;;;;2.17;1.50;;;;;;;17.80;67.27;97735.41;5075387;28;20231;-69
2022/09/03 06:43:29;;;;;;;2.47;1.90;;;;;;;17.75;67.05;97730.84;5075537;28;20204;-69
2022/09/03 06:46:12;;;;;;;2.67;1.60;;;;;;;17.75;67.63;97741.59;5075431;28;20300;-69
2022/09/03 06:48:39;;;;;;;1.77;1.67;;;;;;;17.84;67.93;97745.34;5076037;28;20225;-69
2022/09/03 06:51:10;;;;;;;1.93;1.50;;;;;;;17.88;67.61;97745.59;5075346;28;20251;-69
2022/09/03 06:53:39;;;;;;;3.10;1.80;;;;;;;18.01;68.03;97743.13;5075571;28;20224;-69
2022/09/03 06:56:14;;;;;;;1.67;1.57;;;;;;;18.04;67.85;97745.28;5075447;28;20210;-69
2022/09/03 06:58:43;;;;;;;1.77;1.67;;;;;;;18.18;66.75;97742.84;5075374;28;20220;-69
2022/09/03 07:01:13;;;;;;;2.13;1.83;;;;;;;18.11;67.00;97750.38;5075342;28;20221;-69
2022/09/03 07:03:42;;;;;;;2.03;1.57;;;;;;;18.16;66.88;97747.66;5074939;28;20341;-69
2022/09/03 07:06:14;;;;;;;2.23;1.80;;;;;;;18.35;66.69;97740.63;5075242;28;20212;-69
2022/09/03 07:08:41;;;;;;;2.60;1.70;;;;;;;18.24;66.81;97737.13;5075016;28;20189;-69
2022/09/03 07:11:10;;;;;;;3.80;1.97;;;;;;;18.32;66.88;97741.16;5074782;28;20679;-69
2022/09/03 07:13:40;;;;;;;3.43;1.80;;;;;;;18.40;67.02;97738.72;5075308;28;20209;-69
2022/09/03 07:16:09;;;;;;;2.20;2.00;;;;;;;18.23;67.67;97740.13;5074914;28;20208;-69
2022/09/03 07:18:36;;;;;;;3.93;2.00;;;;;;;18.44;67.59;97753.25;5074868;28;20291;-69
2022/09/03 07:21:09;;;;;;;2.80;1.70;;;;;;;18.41;67.34;97748.41;5074717;28;20537;-69
2022/09/03 07:23:36;;;;;;;2.50;1.90;;;;;;;18.46;68.39;97748.38;5075102;28;20193;-69
2022/09/03 07:26:07;;;;;;;2.63;1.90;;;;;;;18.39;69.47;97750.59;5074761;28;20200;-69
2022/09/03 07:28:36;;;;;;;3.43;2.00;;;;;;;18.40;69.02;97745.97;5074615;28;20279;-69
2022/09/03 07:31:06;;;;;;;5.53;2.03;;;;;;;18.37;69.01;97754.63;5074656;28;20224;-69
2022/09/03 07:33:33;;;;;;;2.57;1.87;;;;;;;18.42;69.66;97752.69;5074620;28;20189;-69
2022/09/03 07:36:13;;;;;;;2.57;1.80;;;;;;;18.39;68.76;97757.84;5074499;28;20208;-69
2022/09/03 07:38:40;;;;;;;3.43;1.90;;;;;;;18.50;68.72;97748.66;5074073;28;20581;-69
2022/09/03 07:41:09;;;;;;;3.60;1.93;;;;;;;18.64;68.09;97747.75;5073739;28;20703;-69
2022/09/03 07:43:42;;;;;;;3.83;2.00;;;;;;;18.72;67.64;97752.56;5074197;28;20204;-69
2022/09/03 07:46:12;;;;;;;1.93;1.70;;;;;;;18.74;67.44;97749.59;5074459;28;20189;-69
2022/09/03 07:48:40;;;;;;;4.10;2.27;;;;;;;18.80;66.82;97749.28;5074368;28;20197;-69
2022/09/03 07:51:08;;;;;;;1.90;1.80;;;;;;;18.92;66.46;97757.81;5073884;28;20634;-70
2022/09/03 07:53:35;;;;;;;2.57;1.80;;;;;;;18.98;65.74;97766.69;5074030;28;20671;-69
2022/09/03 07:56:04;;;;;;;1.60;1.50;;;;;;;18.96;66.13;97763.47;5074312;28;20228;-69
2022/09/03 07:58:32;;;;;;;4.47;2.00;;;;;;;19.06;66.55;97763.41;5073764;28;20204;-69
2022/09/03 08:00:59;;;;;;;2.67;1.73;;;;;;;19.15;66.14;97767.13;5073655;28;20714;-69
2022/09/03 08:03:25;;;;;;;3.27;2.20;;;;;;;19.07;66.40;97776.59;5073472;28;20213;-69
2022/09/03 08:05:51;;;;;;;3.07;2.00;;;;;;;19.09;66.60;97769.03;5073950;28;20223;-69
2022/09/03 08:08:18;;;;;;;3.77;2.10;;;;;;;19.27;67.51;97771.09;5073943;28;20283;-69
2022/09/03 08:10:45;;;;;;;3.70;2.30;;;;;;;19.32;66.76;97770.25;5073508;28;20711;-69
2022/09/03 08:13:11;;;;;;;2.30;2.10;;;;;;;19.12;67.21;97763.09;5073728;28;20281;-69
2022/09/03 08:15:39;;;;;;;2.10;2.00;;;;;;;19.22;68.15;97765.75;5073472;28;20211;-69
2022/09/03 08:18:05;;;;;;;4.03;2.30;;;;;;;19.10;67.40;97778.72;5074161;28;20212;-69
2022/09/03 08:20:32;;;;;;;6.00;2.33;;;;;;;19.25;68.46;97781.38;5073473;28;20229;-69
2022/09/03 08:23:02;;;;;;;2.47;2.27;;;;;;;19.54;68.50;97782.19;5073592;28;20205;-69
2022/09/03 08:25:29;;;;;;;3.13;2.40;;;;;;;20.03;67.55;97781.22;5073826;28;20209;-69
2022/09/03 08:27:59;;;;;;;2.53;2.33;;;;;;;20.06;66.45;97784.16;5073541;28;20303;-69
2022/09/03 08:30:26;;;;;;;2.43;2.20;;;;;;;20.45;64.12;97775.91;5073247;28;20224;-69
2022/09/03 08:32:52;;;;;;;2.40;2.20;;;;;;;20.46;62.63;97772.94;5073521;28;20548;-70
2022/09/03 08:35:20;;;;;;;2.50;2.30;;;;;;;20.40;65.91;97784.06;5073506;28;20204;-69
2022/09/03 08:37:48;;;;;;;4.97;2.60;;;;;;;20.52;63.56;97782.56;5073413;28;20210;-69
2022/09/03 08:40:15;;;;;;;2.30;2.10;;;;;;;20.46;63.94;97781.03;5073181;28;20228;-69
2022/09/03 08:42:45;;;;;;;5.23;2.80;;;;;;;20.62;65.51;97778.94;5073298;28;20204;-69
2022/09/03 08:45:17;;;;;;;3.80;2.30;;;;;;;20.93;64.10;97777.50;5073108;28;20212;-69
2022/09/03 08:47:51;;;;;;;2.70;2.50;;;;;;;20.87;63.38;97776.72;5073666;28;20200;-69
2022/09/03 08:50:38;;;;;;;3.50;2.90;;;;;;;20.63;64.79;97780.53;5055667;28;20315;-69
2022/09/03 08:53:21;;;;;;;3.20;2.70;;;;;;;20.69;63.38;97776.69;5073109;28;20284;-69
2022/09/03 08:55:56;;;;;;;2.50;2.30;;;;;;;20.70;63.58;97786.41;5039859;28;20195;-69
2022/09/03 08:58:27;;;;;;;2.60;2.40;;;;;;;20.59;64.54;97795.72;5073060;28;20204;-69
2022/09/03 09:01:05;;;;;;;3.23;2.37;;;;;;;20.56;64.86;97802.50;5072972;28;20263;-69
2022/09/03 09:04:00;;;;;;;2.60;2.40;;;;;;;20.67;63.66;97800.50;5073111;28;20279;-69
2022/09/03 09:06:33;;;;;;;4.63;2.70;;;;;;;20.26;64.79;97793.97;5073223;28;20288;-69
2022/09/03 09:09:24;;;;;;;2.67;2.47;;;;;;;20.56;65.26;97807.09;5055421;28;20196;-69
2022/09/03 09:12:16;;;;;;;3.67;2.60;;;;;;;20.55;65.65;97797.38;5072737;28;20247;-69
2022/09/03 09:15:06;;;;;;;2.83;2.63;;;;;;;20.44;66.93;97810.19;5072977;28;20293;-69
2022/09/03 09:17:42;;;;;;;3.00;2.67;;;;;;;20.63;67.93;97812.97;5077165;28;20204;-69
2022/09/03 09:20:11;;;;;;;3.47;2.97;;;;;;;20.62;66.77;97817.56;5076700;28;20234;-69
2022/09/03 09:22:46;;;;;;;3.37;2.80;;;;;;;20.68;66.28;97816.41;5078118;28;20287;-69
2022/09/03 09:25:21;;;;;;;3.40;2.80;;;;;;;20.88;66.11;97805.34;5077176;28;20274;-69
2022/09/03 09:27:52;;;;;;;3.47;2.70;;;;;;;20.77;65.10;97805.75;5076733;28;20574;-70
2022/09/03 09:30:19;;;;;;;3.83;2.90;;;;;;;20.67;64.89;97811.28;5076671;28;20678;-69
2022/09/03 09:32:46;;;;;;;3.03;2.73;;;;;;;20.81;65.65;97801.38;5076746;28;20201;-69
2022/09/03 09:35:15;;;;;;;3.23;2.90;;;;;;;21.42;62.82;97799.44;5076782;28;20208;-69
2022/09/03 09:37:53;;;;;;;3.70;3.10;;;;;;;21.84;61.29;97805.53;5076797;28;20204;-69
2022/09/03 09:40:40;;;;;;;3.27;2.97;;;;;;;21.40;62.98;97796.25;5076562;28;20227;-69
2022/09/03 09:43:14;;;;;;;3.13;2.93;;;;;;;21.29;61.47;97801.00;5077324;28;20246;-71
2022/09/03 09:45:43;;;;;;;3.33;3.03;;;;;;;21.82;59.50;97799.63;5076797;28;20192;-71
2022/09/03 09:48:32;;;;;;;5.73;3.50;;;;;;;21.04;61.82;97798.69;5076471;28;20667;-71
2022/09/03 09:51:27;;;;;;;3.10;2.80;;;;;;;21.92;60.94;97799.44;5076294;28;20729;-69
2022/09/03 09:54:11;;;;;;;4.17;3.20;;;;;;;22.05;59.55;97792.44;5074224;28;20209;-69
2022/09/03 09:56:38;;;;;;;3.00;2.80;;;;;;;21.85;59.88;97790.13;5076227;28;20203;-71
2022/09/03 09:59:07;;;;;;;3.10;2.90;;;;;;;21.92;60.33;97795.94;5076332;28;20598;-69
2022/09/03 10:01:36;;;;;;;5.63;3.47;;;;;;;21.81;59.78;97803.44;5075978;28;20244;-69
2022/09/03 10:04:30;;;;;;;4.50;3.20;;;;;;;21.50;59.95;97801.50;5075974;28;20207;-69
2022/09/03 10:07:03;;;;;;;3.80;3.40;;;;;;;21.20;60.45;97797.34;5076238;28;20211;-69
2022/09/03 10:09:32;;;;;;;3.97;2.80;;;;;;;21.13;62.35;97805.03;5059311;28;20259;-69
2022/09/03 10:12:09;;;;;;;3.07;2.80;;;;;;;21.15;61.47;97802.00;5075992;28;20204;-69
2022/09/03 10:14:41;;;;;;;2.80;2.50;;;;;;;21.33;61.62;97798.50;5075811;28;20644;-69
2022/09/03 10:17:56;;;;;;;5.07;2.60;;;;;;;21.13;61.48;97805.03;5075840;28;20262;-69
2022/09/03 10:20:39;;;;;;;5.73;2.50;;;;;;;21.63;59.75;97811.56;5057902;28;20235;-69
2022/09/03 10:23:08;;;;;;;2.60;2.40;;;;;;;21.58;59.02;97804.34;5076134;28;20220;-69
2022/09/03 10:25:49;;;;;;;2.73;2.53;;;;;;;21.29;60.31;97801.00;5075678;28;20618;-69
2022/09/03 10:28:16;;;;;;;3.13;2.60;;;;;;;21.21;60.59;97798.16;5075600;28;20193;-72
2022/09/03 10:30:54;;;;;;;2.60;2.40;;;;;;;21.38;61.02;97795.75;5075479;28;20311;-69
2022/09/03 10:33:38;;;;;;;2.70;2.50;;;;;;;21.70;61.43;97784.97;5075746;28;20200;-70
2022/09/03 10:36:21;;;;;;;2.80;2.60;;;;;;;21.87;58.37;97787.91;5075918;28;20193;-69
2022/09/03 10:39:05;;;;;;;2.53;2.33;;;;;;;22.13;59.84;97783.66;5059436;28;20189;-69
2022/09/03 10:42:06;;;;;;;3.03;2.40;;;;;;;22.36;57.70;97791.59;5075742;28;20296;-72
2022/09/03 10:45:04;;;;;;;3.37;2.70;;;;;;;21.99;57.68;97799.88;5075702;28;20280;-69
2022/09/03 10:47:54;;;;;;;3.30;2.93;;;;;;;22.18;56.84;97795.19;5046966;28;20295;-72
2022/09/03 10:50:27;;;;;;;3.07;2.60;;;;;;;22.10;57.49;97798.59;5075244;28;20232;-72
2022/09/03 10:53:28;;;;;;;3.07;2.30;;;;;;;22.10;58.91;97787.75;5075424;28;20205;-69
2022/09/03 10:56:18;;;;;;;2.87;2.40;;;;;;;22.05;58.19;97789.75;5074849;28;20184;-69
2022/09/03 10:59:10;;;;;;;2.90;2.70;;;;;;;22.26;58.69;97780.97;5074776;28;20709;-69
2022/09/03 11:01:58;;;;;;;2.80;2.60;;;;;;;22.41;58.56;97777.13;5058947;28;20315;-69
2022/09/03 11:05:06;;;;;;;3.00;2.65;;;;;;;22.58;58.09;97774.66;5075220;28;20195;-69
2022/09/03 11:07:42;;;;;;;5.82;2.83;;;;;;;22.63;56.84;97774.56;5075086;28;20193;-69
2022/09/03 11:10:19;;;;;;;2.88;2.65;;;;;;;22.30;56.88;97770.31;5075501;28;20223;-69
2022/09/03 11:13:02;;;;;;;4.72;2.88;;;;;;;22.24;58.70;97760.72;5074937;28;20603;-69
2022/09/03 11:15:34;;;;;;;2.70;2.50;;;;;;;22.00;58.54;97770.88;5058402;28;20213;-71
2022/09/03 11:18:32;;;;;;;5.13;2.72;;;;;;;22.00;59.75;97763.59;5056838;28;20636;-72
2022/09/03 11:21:03;;;;;;;5.15;2.80;;;;;;;22.14;58.80;97753.56;5074423;28;20267;-72
2022/09/03 11:23:36;;;;;;;3.03;2.72;;;;;;;22.17;58.71;97755.69;5074690;28;20280;-72
2022/09/03 11:26:11;;;;;;;4.93;3.10;;;;;;;22.38;58.12;97751.47;5041038;28;20193;-69
2022/09/03 11:29:14;;;;;;;3.10;2.90;;;;;;;22.16;58.87;97751.34;5074639;28;20218;-69
2022/09/03 11:32:02;;;;;;;2.80;2.60;;;;;;;22.20;59.21;97743.44;5074440;28;20204;-69
2022/09/03 11:34:28;;;;;;;3.20;2.90;;;;;;;22.31;58.75;97755.69;5074361;28;20200;-69
2022/09/03 11:37:24;;;;;;;4.13;2.80;;;;;;;22.32;59.48;97755.38;5074638;28;20245;-69
2022/09/03 11:40:15;;;;;;;3.55;3.25;;;;;;;22.05;59.22;97757.25;5073977;28;20225;-69
2022/09/03 11:42:43;;;;;;;4.68;2.95;;;;;;;22.10;58.85;97746.31;5074569;28;20251;-70
2022/09/03 11:45:28;;;;;;;3.20;2.65;;;;;;;21.99;59.35;97742.22;5074381;28;20201;-69
2022/09/03 11:47:55;;;;;;;3.03;2.83;;;;;;;21.90;59.72;97738.59;5074317;28;20205;-69
2022/09/03 11:50:33;;;;;;;2.97;2.77;;;;;;;21.96;59.77;97740.91;5073918;28;20220;-69
2022/09/03 11:53:23;;;;;;;5.10;3.10;;;;;;;21.80;60.33;97758.50;5074416;28;20254;-69
2022/09/03 11:55:54;;;;;;;3.20;2.90;;;;;;;21.61;60.54;97763.16;5073726;28;20657;-69
2022/09/03 11:58:37;;;;;;;5.60;3.10;;;;;;;21.60;61.33;97756.16;5074059;28;20670;-69
2022/09/03 12:01:10;;;;;;;4.13;2.80;;;;;;;21.46;62.82;97752.59;5073796;28;20331;-69
2022/09/03 12:03:42;;;;;;;5.07;3.20;;;;;;;21.41;62.95;97776.22;5074146;28;20189;-69
2022/09/03 12:06:30;;;;;;;3.80;2.67;;;;;;;21.41;61.78;97789.72;5073833;28;20638;-69